Archival Weather

Chicago/Rockford Intl

Rockford, Illinois (KRFD)

Report from: Friday, February 3, 2023 10:54 AM CST
Current time: Sunday, February 25, 2024 10:05 AM CST

Current weather – Weather history – Daily summaries
Weather forecast

Temperature-16.7°C (1.9°F)
Wind chill-24.3°C (-11.8°F)
Dew point-25.0°C (-13.0°F)
Winds 7 kts (3.6 m/s, 8.1 mph) Northwest (310°)
Visibility10 mi. (16.1 km)
Clouds Few clouds 12,000 ft. (3,658 m)
Altimeter30.66 in.Hg (1038 mB)
Relative humidity48 %
Density altitude-4,933 ft. (-1,504 m)
Sea-level pressure104.0 kPa (1040 mB, 30.72 in.Hg)
Remarks Automated weather observing station with precipitation discriminator
Flight conditions Visual Meteorological Conditions
Raw dataKRFD 031654Z 31007KT 10SM FEW120 M17/M25 A3066 RMK AO2 SLP402 T11671250
An unhandled exception has occurred. See browser dev tools for details. Reload 🗙